sensor_id;sensor_type;location;lat;lon;timestamp;pressure;altitude;pressure_sealevel;temperature;humidity
11914;BME280;6017;42.676;23.284;2022-09-21T00:01:25;94489.81;;;8.28;93.67
11914;BME280;6017;42.676;23.284;2022-09-21T00:03:54;94494.06;;;8.32;93.31
11914;BME280;6017;42.676;23.284;2022-09-21T00:06:24;94491.78;;;8.31;93.08
11914;BME280;6017;42.676;23.284;2022-09-21T00:08:52;94496.25;;;8.27;93.90
11914;BME280;6017;42.676;23.284;2022-09-21T00:11:21;94490.16;;;8.26;93.93
11914;BME280;6017;42.676;23.284;2022-09-21T00:13:51;94499.34;;;8.29;93.75
11914;BME280;6017;42.676;23.284;2022-09-21T00:16:20;94509.19;;;8.28;93.08
11914;BME280;6017;42.676;23.284;2022-09-21T00:18:47;94502.38;;;8.15;94.11
11914;BME280;6017;42.676;23.284;2022-09-21T00:21:14;94501.78;;;8.06;94.59
11914;BME280;6017;42.676;23.284;2022-09-21T00:23:44;94501.53;;;7.96;93.44
11914;BME280;6017;42.676;23.284;2022-09-21T00:26:13;94498.88;;;7.80;92.01
11914;BME280;6017;42.676;23.284;2022-09-21T00:28:40;94503.38;;;7.64;92.22
11914;BME280;6017;42.676;23.284;2022-09-21T00:31:10;94493.50;;;7.49;92.60
11914;BME280;6017;42.676;23.284;2022-09-21T00:33:39;94487.16;;;7.38;93.29
11914;BME280;6017;42.676;23.284;2022-09-21T00:36:08;94488.06;;;7.30;94.70
11914;BME280;6017;42.676;23.284;2022-09-21T00:38:36;94414.41;;;6.68;95.25
11914;BME280;6017;42.676;23.284;2022-09-21T00:41:06;94496.94;;;7.07;96.97
11914;BME280;6017;42.676;23.284;2022-09-21T00:43:34;94486.78;;;6.97;97.83
11914;BME280;6017;42.676;23.284;2022-09-21T00:46:03;94475.16;;;7.01;98.93
11914;BME280;6017;42.676;23.284;2022-09-21T00:48:31;94403.72;;;6.65;100.00
11914;BME280;6017;42.676;23.284;2022-09-21T00:51:02;94465.72;;;7.16;100.00
11914;BME280;6017;42.676;23.284;2022-09-21T00:53:33;94491.53;;;7.46;100.00
11914;BME280;6017;42.676;23.284;2022-09-21T00:56:02;94485.28;;;7.39;100.00
11914;BME280;6017;42.676;23.284;2022-09-21T00:58:33;94491.44;;;7.43;100.00
11914;BME280;6017;42.676;23.284;2022-09-21T01:01:05;94498.81;;;7.49;100.00
11914;BME280;6017;42.676;23.284;2022-09-21T01:03:32;94498.94;;;7.53;99.89
11914;BME280;6017;42.676;23.284;2022-09-21T01:05:59;94484.03;;;7.48;100.00
11914;BME280;6017;42.676;23.284;2022-09-21T01:08:27;94485.75;;;7.56;99.34
11914;BME280;6017;42.676;23.284;2022-09-21T01:13:59;94484.25;;;7.43;97.43
11914;BME280;6017;42.676;23.284;2022-09-21T01:16:36;94489.97;;;7.88;96.65
11914;BME280;6017;42.676;23.284;2022-09-21T01:19:11;94472.47;;;7.87;95.11
11914;BME280;6017;42.676;23.284;2022-09-21T01:21:47;94483.38;;;7.98;94.74
11914;BME280;6017;42.676;23.284;2022-09-21T01:24:39;94472.84;;;7.70;96.53
11914;BME280;6017;42.676;23.284;2022-09-21T01:30:06;94392.47;;;7.11;95.85
11914;BME280;6017;42.676;23.284;2022-09-21T01:32:38;94471.03;;;7.59;95.51
11914;BME280;6017;42.676;23.284;2022-09-21T01:35:11;94404.97;;;7.11;95.72
11914;BME280;6017;42.676;23.284;2022-09-21T01:37:43;94464.88;;;7.55;96.55
11914;BME280;6017;42.676;23.284;2022-09-21T01:40:15;94468.84;;;7.49;97.71
11914;BME280;6017;42.676;23.284;2022-09-21T01:42:44;94408.78;;;7.13;97.92
11914;BME280;6017;42.676;23.284;2022-09-21T01:45:16;94471.81;;;7.59;97.74
11914;BME280;6017;42.676;23.284;2022-09-21T01:47:47;94470.00;;;7.63;96.78
11914;BME280;6017;42.676;23.284;2022-09-21T01:50:22;94463.50;;;7.61;96.44
11914;BME280;6017;42.676;23.284;2022-09-21T01:52:53;94470.97;;;7.28;96.74
11914;BME280;6017;42.676;23.284;2022-09-21T01:55:25;94479.44;;;7.33;99.01
11914;BME280;6017;42.676;23.284;2022-09-21T01:57:57;94473.00;;;7.19;100.00
11914;BME280;6017;42.676;23.284;2022-09-21T02:00:28;94468.13;;;7.21;100.00
11914;BME280;6017;42.676;23.284;2022-09-21T02:02:59;94468.59;;;7.11;100.00
11914;BME280;6017;42.676;23.284;2022-09-21T02:05:29;94478.03;;;7.08;100.00
11914;BME280;6017;42.676;23.284;2022-09-21T02:07:57;94473.47;;;7.09;100.00
11914;BME280;6017;42.676;23.284;2022-09-21T02:10:27;94473.28;;;7.02;100.00
11914;BME280;6017;42.676;23.284;2022-09-21T02:12:59;94478.03;;;6.96;100.00
11914;BME280;6017;42.676;23.284;2022-09-21T02:15:35;94438.75;;;6.58;100.00
11914;BME280;6017;42.676;23.284;2022-09-21T02:18:07;94481.28;;;6.90;100.00
11914;BME280;6017;42.676;23.284;2022-09-21T02:20:44;94470.75;;;6.93;100.00
11914;BME280;6017;42.676;23.284;2022-09-21T02:23:19;94473.00;;;6.91;100.00
11914;BME280;6017;42.676;23.284;2022-09-21T02:25:55;94476.00;;;6.78;100.00
11914;BME280;6017;42.676;23.284;2022-09-21T02:28:31;94481.31;;;6.78;100.00
11914;BME280;6017;42.676;23.284;2022-09-21T02:31:07;94478.44;;;6.83;100.00
11914;BME280;6017;42.676;23.284;2022-09-21T02:33:43;94482.63;;;6.84;100.00
11914;BME280;6017;42.676;23.284;2022-09-21T02:36:19;94473.47;;;6.81;100.00
11914;BME280;6017;42.676;23.284;2022-09-21T02:38:51;94480.31;;;6.82;100.00
11914;BME280;6017;42.676;23.284;2022-09-21T02:41:23;94474.19;;;6.54;100.00
11914;BME280;6017;42.676;23.284;2022-09-21T02:43:58;94475.44;;;6.44;100.00
11914;BME280;6017;42.676;23.284;2022-09-21T02:46:31;94458.59;;;6.25;100.00
11914;BME280;6017;42.676;23.284;2022-09-21T02:49:03;94473.78;;;6.40;100.00
11914;BME280;6017;42.676;23.284;2022-09-21T02:51:37;94396.69;;;5.81;100.00
11914;BME280;6017;42.676;23.284;2022-09-21T02:54:05;94356.25;;;5.57;100.00
11914;BME280;6017;42.676;23.284;2022-09-21T02:56:33;94451.38;;;6.25;100.00
11914;BME280;6017;42.676;23.284;2022-09-21T02:59:03;94478.59;;;6.50;100.00
11914;BME280;6017;42.676;23.284;2022-09-21T03:01:33;94479.06;;;6.52;100.00
11914;BME280;6017;42.676;23.284;2022-09-21T03:04:00;94482.56;;;6.56;100.00
11914;BME280;6017;42.676;23.284;2022-09-21T03:06:27;94473.53;;;6.57;100.00
11914;BME280;6017;42.676;23.284;2022-09-21T03:08:56;94475.41;;;6.56;100.00
11914;BME280;6017;42.676;23.284;2022-09-21T03:11:23;94426.91;;;6.16;100.00
11914;BME280;6017;42.676;23.284;2022-09-21T03:13:51;94471.41;;;6.62;100.00
11914;BME280;6017;42.676;23.284;2022-09-21T03:16:18;94488.19;;;6.54;100.00
11914;BME280;6017;42.676;23.284;2022-09-21T03:18:46;94476.59;;;6.59;100.00
11914;BME280;6017;42.676;23.284;2022-09-21T03:21:13;94484.56;;;6.59;100.00
11914;BME280;6017;42.676;23.284;2022-09-21T03:23:40;94478.16;;;6.60;100.00
11914;BME280;6017;42.676;23.284;2022-09-21T03:26:07;94473.38;;;6.65;100.00
11914;BME280;6017;42.676;23.284;2022-09-21T03:28:34;94478.34;;;6.67;100.00
11914;BME280;6017;42.676;23.284;2022-09-21T03:31:01;94472.38;;;6.70;100.00
11914;BME280;6017;42.676;23.284;2022-09-21T03:33:28;94475.69;;;6.67;100.00
11914;BME280;6017;42.676;23.284;2022-09-21T03:35:56;94478.06;;;6.56;100.00
11914;BME280;6017;42.676;23.284;2022-09-21T03:38:24;94475.41;;;6.56;100.00
11914;BME280;6017;42.676;23.284;2022-09-21T03:40:51;94477.09;;;6.37;100.00
11914;BME280;6017;42.676;23.284;2022-09-21T03:43:19;94479.19;;;6.31;100.00
11914;BME280;6017;42.676;23.284;2022-09-21T03:45:46;94479.75;;;6.37;100.00
11914;BME280;6017;42.676;23.284;2022-09-21T03:48:14;94463.66;;;6.18;100.00
11914;BME280;6017;42.676;23.284;2022-09-21T03:50:41;94517.16;;;6.35;100.00
11914;BME280;6017;42.676;23.284;2022-09-21T03:53:10;94497.63;;;6.40;100.00
11914;BME280;6017;42.676;23.284;2022-09-21T03:55:37;94469.25;;;6.28;100.00
11914;BME280;6017;42.676;23.284;2022-09-21T03:58:04;94489.22;;;6.50;100.00
11914;BME280;6017;42.676;23.284;2022-09-21T04:00:31;94478.41;;;6.43;100.00
11914;BME280;6017;42.676;23.284;2022-09-21T04:02:59;94486.22;;;6.51;100.00
11914;BME280;6017;42.676;23.284;2022-09-21T04:05:26;94435.06;;;6.11;100.00
11914;BME280;6017;42.676;23.284;2022-09-21T04:07:54;94481.72;;;6.40;100.00
11914;BME280;6017;42.676;23.284;2022-09-21T04:10:23;94490.78;;;6.27;100.00
11914;BME280;6017;42.676;23.284;2022-09-21T04:12:58;94491.22;;;6.41;100.00
11914;BME280;6017;42.676;23.284;2022-09-21T04:15:27;94486.81;;;6.45;100.00
11914;BME280;6017;42.676;23.284;2022-09-21T04:17:54;94486.38;;;6.31;100.00
11914;BME280;6017;42.676;23.284;2022-09-21T04:20:22;94483.94;;;6.26;100.00
11914;BME280;6017;42.676;23.284;2022-09-21T04:22:49;94484.16;;;6.33;100.00
11914;BME280;6017;42.676;23.284;2022-09-21T04:25:17;94486.56;;;6.50;100.00
11914;BME280;6017;42.676;23.284;2022-09-21T04:27:45;94455.25;;;6.16;100.00
11914;BME280;6017;42.676;23.284;2022-09-21T04:30:14;94491.00;;;6.34;100.00
11914;BME280;6017;42.676;23.284;2022-09-21T04:32:41;94490.38;;;6.25;100.00
11914;BME280;6017;42.676;23.284;2022-09-21T04:35:09;94463.88;;;6.13;100.00
11914;BME280;6017;42.676;23.284;2022-09-21T04:37:36;94493.41;;;6.39;100.00
11914;BME280;6017;42.676;23.284;2022-09-21T04:40:04;94444.00;;;6.07;100.00
11914;BME280;6017;42.676;23.284;2022-09-21T04:42:32;94498.94;;;6.46;100.00
11914;BME280;6017;42.676;23.284;2022-09-21T04:45:00;94496.06;;;6.51;100.00
11914;BME280;6017;42.676;23.284;2022-09-21T04:47:29;94494.16;;;6.51;100.00
11914;BME280;6017;42.676;23.284;2022-09-21T04:49:56;94498.06;;;6.54;100.00
11914;BME280;6017;42.676;23.284;2022-09-21T04:52:23;94497.81;;;6.59;100.00
11914;BME280;6017;42.676;23.284;2022-09-21T04:54:50;94502.53;;;6.65;100.00
11914;BME280;6017;42.676;23.284;2022-09-21T04:57:17;94509.25;;;6.75;100.00
11914;BME280;6017;42.676;23.284;2022-09-21T04:59:44;94520.84;;;6.83;100.00
11914;BME280;6017;42.676;23.284;2022-09-21T05:02:14;94506.56;;;6.87;100.00
11914;BME280;6017;42.676;23.284;2022-09-21T05:04:41;94504.91;;;6.95;100.00
11914;BME280;6017;42.676;23.284;2022-09-21T05:07:08;94508.53;;;7.02;100.00
11914;BME280;6017;42.676;23.284;2022-09-21T05:09:35;94516.00;;;7.12;100.00
11914;BME280;6017;42.676;23.284;2022-09-21T05:12:19;94502.50;;;7.17;100.00
11914;BME280;6017;42.676;23.284;2022-09-21T05:14:46;94483.91;;;7.02;100.00
11914;BME280;6017;42.676;23.284;2022-09-21T05:17:14;94510.63;;;7.52;100.00
11914;BME280;6017;42.676;23.284;2022-09-21T05:19:41;94511.00;;;7.66;100.00
11914;BME280;6017;42.676;23.284;2022-09-21T05:22:09;94510.84;;;7.74;100.00
11914;BME280;6017;42.676;23.284;2022-09-21T05:24:35;94513.75;;;7.69;100.00
11914;BME280;6017;42.676;23.284;2022-09-21T05:27:03;94512.72;;;7.74;100.00
11914;BME280;6017;42.676;23.284;2022-09-21T05:29:30;94507.19;;;7.94;100.00
11914;BME280;6017;42.676;23.284;2022-09-21T05:32:01;94512.50;;;8.10;100.00
11914;BME280;6017;42.676;23.284;2022-09-21T05:34:41;94514.66;;;8.35;100.00
11914;BME280;6017;42.676;23.284;2022-09-21T05:40:03;94511.53;;;8.65;100.00
11914;BME280;6017;42.676;23.284;2022-09-21T05:42:31;94506.44;;;8.75;100.00
11914;BME280;6017;42.676;23.284;2022-09-21T05:44:59;94509.59;;;8.81;100.00
11914;BME280;6017;42.676;23.284;2022-09-21T05:47:36;94505.44;;;8.99;100.00
11914;BME280;6017;42.676;23.284;2022-09-21T05:50:23;94507.66;;;9.16;100.00
11914;BME280;6017;42.676;23.284;2022-09-21T05:53:00;94430.78;;;8.92;100.00
11914;BME280;6017;42.676;23.284;2022-09-21T05:55:39;94501.91;;;9.52;98.80
11914;BME280;6017;42.676;23.284;2022-09-21T05:58:16;94506.72;;;9.65;100.00
11914;BME280;6017;42.676;23.284;2022-09-21T06:00:56;94497.81;;;9.77;100.00
11914;BME280;6017;42.676;23.284;2022-09-21T06:03:28;94507.47;;;9.85;100.00
11914;BME280;6017;42.676;23.284;2022-09-21T06:05:57;94502.13;;;9.85;100.00
11914;BME280;6017;42.676;23.284;2022-09-21T06:08:25;94514.03;;;9.91;100.00
11914;BME280;6017;42.676;23.284;2022-09-21T06:10:52;94507.00;;;10.02;100.00
11914;BME280;6017;42.676;23.284;2022-09-21T06:13:19;94517.38;;;10.07;99.93
11914;BME280;6017;42.676;23.284;2022-09-21T06:15:46;94518.31;;;9.95;99.10
11914;BME280;6017;42.676;23.284;2022-09-21T06:18:13;94466.31;;;9.60;100.00
11914;BME280;6017;42.676;23.284;2022-09-21T06:20:40;94518.00;;;10.00;99.57
11914;BME280;6017;42.676;23.284;2022-09-21T06:23:10;94525.13;;;9.93;100.00
11914;BME280;6017;42.676;23.284;2022-09-21T06:25:37;94533.50;;;9.95;100.00
11914;BME280;6017;42.676;23.284;2022-09-21T06:28:06;94522.03;;;10.10;100.00
11914;BME280;6017;42.676;23.284;2022-09-21T06:30:35;94531.34;;;10.23;99.85
11914;BME280;6017;42.676;23.284;2022-09-21T06:33:03;94526.63;;;10.36;98.30
11914;BME280;6017;42.676;23.284;2022-09-21T06:35:32;94528.63;;;10.42;98.28
11914;BME280;6017;42.676;23.284;2022-09-21T06:38:00;94531.38;;;10.49;97.19
11914;BME280;6017;42.676;23.284;2022-09-21T06:40:30;94421.09;;;9.86;95.99
11914;BME280;6017;42.676;23.284;2022-09-21T06:42:58;94535.56;;;10.47;94.96
11914;BME280;6017;42.676;23.284;2022-09-21T06:45:26;94542.47;;;10.51;97.50
11914;BME280;6017;42.676;23.284;2022-09-21T06:47:53;94581.41;;;10.56;94.04
11914;BME280;6017;42.676;23.284;2022-09-21T06:50:21;94555.47;;;10.53;93.89
11914;BME280;6017;42.676;23.284;2022-09-21T06:52:48;94547.91;;;10.58;93.78
11914;BME280;6017;42.676;23.284;2022-09-21T06:55:15;94550.34;;;10.67;94.06
11914;BME280;6017;42.676;23.284;2022-09-21T06:57:43;94543.41;;;10.62;93.35
11914;BME280;6017;42.676;23.284;2022-09-21T07:00:12;94505.34;;;10.39;92.21
11914;BME280;6017;42.676;23.284;2022-09-21T07:02:42;94535.41;;;10.36;92.86
11914;BME280;6017;42.676;23.284;2022-09-21T07:05:10;94495.94;;;10.23;93.24
11914;BME280;6017;42.676;23.284;2022-09-21T07:07:37;94556.63;;;10.78;94.08
11914;BME280;6017;42.676;23.284;2022-09-21T07:10:05;94558.19;;;10.82;91.93
11914;BME280;6017;42.676;23.284;2022-09-21T07:12:33;94552.94;;;10.89;90.52
11914;BME280;6017;42.676;23.284;2022-09-21T07:15:04;94551.38;;;10.85;91.48
11914;BME280;6017;42.676;23.284;2022-09-21T07:17:31;94458.56;;;10.19;91.17
11914;BME280;6017;42.676;23.284;2022-09-21T07:19:59;94479.50;;;10.43;90.85
11914;BME280;6017;42.676;23.284;2022-09-21T07:22:27;94569.53;;;10.76;92.16
11914;BME280;6017;42.676;23.284;2022-09-21T07:24:54;94534.91;;;10.79;90.34
11914;BME280;6017;42.676;23.284;2022-09-21T07:27:22;94531.41;;;10.75;88.56
11914;BME280;6017;42.676;23.284;2022-09-21T07:29:49;94561.59;;;11.05;89.02
11914;BME280;6017;42.676;23.284;2022-09-21T07:32:18;94532.25;;;10.79;88.75
11914;BME280;6017;42.676;23.284;2022-09-21T07:34:45;94414.28;;;10.11;88.64
11914;BME280;6017;42.676;23.284;2022-09-21T07:37:13;94565.72;;;11.29;85.38
11914;BME280;6017;42.676;23.284;2022-09-21T07:39:40;94544.53;;;11.13;84.66
11914;BME280;6017;42.676;23.284;2022-09-21T07:42:07;94536.56;;;11.17;84.29
11914;BME280;6017;42.676;23.284;2022-09-21T07:44:34;94476.72;;;10.88;83.21
11914;BME280;6017;42.676;23.284;2022-09-21T07:47:01;94534.97;;;11.42;82.09
11914;BME280;6017;42.676;23.284;2022-09-21T07:49:30;94550.25;;;11.75;83.45
11914;BME280;6017;42.676;23.284;2022-09-21T07:51:56;94565.97;;;11.80;82.00
11914;BME280;6017;42.676;23.284;2022-09-21T07:54:23;94554.84;;;11.74;82.49
11914;BME280;6017;42.676;23.284;2022-09-21T07:56:50;94558.06;;;11.90;83.12
11914;BME280;6017;42.676;23.284;2022-09-21T07:59:31;94568.13;;;12.04;81.37
11914;BME280;6017;42.676;23.284;2022-09-21T08:01:58;94554.34;;;11.98;81.17
11914;BME280;6017;42.676;23.284;2022-09-21T08:04:25;94547.53;;;11.68;83.39
11914;BME280;6017;42.676;23.284;2022-09-21T08:06:54;94564.09;;;11.80;82.19
11914;BME280;6017;42.676;23.284;2022-09-21T08:09:21;94554.97;;;11.88;82.54
11914;BME280;6017;42.676;23.284;2022-09-21T08:11:48;94524.16;;;11.98;83.39
11914;BME280;6017;42.676;23.284;2022-09-21T09:56:43;94505.84;;;13.94;63.35
11914;BME280;6017;42.676;23.284;2022-09-21T09:59:16;94490.19;;;14.13;64.26
11914;BME280;6017;42.676;23.284;2022-09-21T10:01:45;94503.56;;;14.06;63.89
11914;BME280;6017;42.676;23.284;2022-09-21T10:04:23;94496.25;;;13.82;63.67
11914;BME280;6017;42.676;23.284;2022-09-21T10:06:50;94492.00;;;13.71;61.69
11914;BME280;6017;42.676;23.284;2022-09-21T10:09:22;94498.47;;;13.56;62.94
11914;BME280;6017;42.676;23.284;2022-09-21T10:11:51;94454.00;;;13.30;60.43
11914;BME280;6017;42.676;23.284;2022-09-21T10:14:21;94491.97;;;13.60;62.61
11914;BME280;6017;42.676;23.284;2022-09-21T10:16:50;94365.09;;;13.00;62.07
11914;BME280;6017;42.676;23.284;2022-09-21T10:19:20;94489.00;;;13.93;63.97
11914;BME280;6017;42.676;23.284;2022-09-21T10:21:53;94471.34;;;13.75;63.34
11914;BME280;6017;42.676;23.284;2022-09-21T10:24:23;94488.19;;;13.72;61.17
11914;BME280;6017;42.676;23.284;2022-09-21T10:26:53;94487.59;;;13.17;62.06
11914;BME280;6017;42.676;23.284;2022-09-21T10:29:30;94423.66;;;13.05;66.04
11914;BME280;6017;42.676;23.284;2022-09-21T10:31:59;94500.75;;;13.50;60.88
11914;BME280;6017;42.676;23.284;2022-09-21T10:34:28;94475.13;;;13.56;62.07
11914;BME280;6017;42.676;23.284;2022-09-21T10:36:57;94468.19;;;13.45;59.02
11914;BME280;6017;42.676;23.284;2022-09-21T10:39:27;94491.59;;;13.62;62.67
11914;BME280;6017;42.676;23.284;2022-09-21T10:42:01;94488.13;;;13.47;60.46
11914;BME280;6017;42.676;23.284;2022-09-21T10:44:38;94468.22;;;13.55;61.50
11914;BME280;6017;42.676;23.284;2022-09-21T10:47:20;94447.97;;;13.68;62.55
11914;BME280;6017;42.676;23.284;2022-09-21T10:49:50;94298.84;;;12.72;61.31
11914;BME280;6017;42.676;23.284;2022-09-21T10:52:21;94348.56;;;12.80;60.93
11914;BME280;6017;42.676;23.284;2022-09-21T10:54:52;94492.19;;;13.20;61.37
11914;BME280;6017;42.676;23.284;2022-09-21T10:57:24;94475.41;;;13.27;62.45
11914;BME280;6017;42.676;23.284;2022-09-21T10:59:52;94462.72;;;13.16;61.96
11914;BME280;6017;42.676;23.284;2022-09-21T11:02:40;94469.28;;;13.26;62.22
11914;BME280;6017;42.676;23.284;2022-09-21T11:05:13;94413.59;;;12.84;63.78
11914;BME280;6017;42.676;23.284;2022-09-21T11:07:45;94416.03;;;13.07;65.42
11914;BME280;6017;42.676;23.284;2022-09-21T11:10:19;94454.44;;;13.50;65.28
11914;BME280;6017;42.676;23.284;2022-09-21T11:12:55;94393.81;;;13.06;63.64
11914;BME280;6017;42.676;23.284;2022-09-21T11:15:37;94452.16;;;13.69;60.90
11914;BME280;6017;42.676;23.284;2022-09-21T11:18:14;94397.28;;;13.07;59.47
11914;BME280;6017;42.676;23.284;2022-09-21T11:20:51;94473.19;;;13.57;58.61
11914;BME280;6017;42.676;23.284;2022-09-21T11:23:40;94453.69;;;13.56;60.89
11914;BME280;6017;42.676;23.284;2022-09-21T11:26:16;94293.75;;;12.43;59.24
11914;BME280;6017;42.676;23.284;2022-09-21T11:28:52;94423.09;;;13.71;61.01
11914;BME280;6017;42.676;23.284;2022-09-21T11:31:47;94453.44;;;14.38;62.28
11914;BME280;6017;42.676;23.284;2022-09-21T11:37:30;94472.94;;;14.21;59.75
11914;BME280;6017;42.676;23.284;2022-09-21T11:40:10;94456.03;;;13.89;60.37
11914;BME280;6017;42.676;23.284;2022-09-21T11:42:47;94350.97;;;13.03;60.51
11914;BME280;6017;42.676;23.284;2022-09-21T11:45:36;94450.59;;;13.47;59.93
11914;BME280;6017;42.676;23.284;2022-09-21T11:48:15;94459.09;;;13.77;61.24
11914;BME280;6017;42.676;23.284;2022-09-21T11:50:54;94302.69;;;12.78;59.20
11914;BME280;6017;42.676;23.284;2022-09-21T11:53:30;94441.50;;;13.97;58.49
11914;BME280;6017;42.676;23.284;2022-09-21T11:59:05;94487.91;;;14.75;59.15
11914;BME280;6017;42.676;23.284;2022-09-21T12:01:47;94482.16;;;14.76;62.05
11914;BME280;6017;42.676;23.284;2022-09-21T12:04:32;94436.53;;;13.99;65.49
11914;BME280;6017;42.676;23.284;2022-09-21T12:07:12;94452.97;;;13.80;65.31
11914;BME280;6017;42.676;23.284;2022-09-21T12:10:00;94472.13;;;13.82;64.67
11914;BME280;6017;42.676;23.284;2022-09-21T12:12:37;94461.06;;;14.19;64.01
11914;BME280;6017;42.676;23.284;2022-09-21T12:15:13;94471.00;;;14.11;60.01
11914;BME280;6017;42.676;23.284;2022-09-21T12:17:51;94300.75;;;12.75;61.74
11914;BME280;6017;42.676;23.284;2022-09-21T12:20:28;94466.78;;;13.96;59.80
11914;BME280;6017;42.676;23.284;2022-09-21T12:23:01;94472.13;;;13.89;57.89
11914;BME280;6017;42.676;23.284;2022-09-21T12:25:33;94492.78;;;13.75;59.68
11914;BME280;6017;42.676;23.284;2022-09-21T12:28:05;94404.63;;;13.31;61.44
11914;BME280;6017;42.676;23.284;2022-09-21T12:30:37;94472.84;;;13.58;59.95
11914;BME280;6017;42.676;23.284;2022-09-21T12:33:13;94464.81;;;13.58;61.60
11914;BME280;6017;42.676;23.284;2022-09-21T12:35:43;94462.13;;;13.65;60.35
11914;BME280;6017;42.676;23.284;2022-09-21T12:38:16;94456.00;;;13.68;60.69
11914;BME280;6017;42.676;23.284;2022-09-21T12:40:48;94451.06;;;13.84;62.80
11914;BME280;6017;42.676;23.284;2022-09-21T12:43:25;94439.19;;;13.96;62.29
11914;BME280;6017;42.676;23.284;2022-09-21T12:45:56;94346.03;;;13.26;60.12
11914;BME280;6017;42.676;23.284;2022-09-21T12:48:31;94392.84;;;13.78;60.48
11914;BME280;6017;42.676;23.284;2022-09-21T12:51:03;94311.25;;;13.23;60.60
11914;BME280;6017;42.676;23.284;2022-09-21T12:53:34;94443.81;;;13.95;61.07
11914;BME280;6017;42.676;23.284;2022-09-21T12:56:04;94433.06;;;14.02;61.15
11914;BME280;6017;42.676;23.284;2022-09-21T12:58:59;94459.16;;;14.09;61.11
11914;BME280;6017;42.676;23.284;2022-09-21T13:01:33;94434.63;;;14.28;60.23
11914;BME280;6017;42.676;23.284;2022-09-21T13:04:38;94439.63;;;14.50;58.50
11914;BME280;6017;42.676;23.284;2022-09-21T13:07:27;94424.28;;;14.47;54.91
11914;BME280;6017;42.676;23.284;2022-09-21T13:09:59;94435.38;;;14.56;54.17
11914;BME280;6017;42.676;23.284;2022-09-21T13:12:30;94435.41;;;14.32;53.42
11914;BME280;6017;42.676;23.284;2022-09-21T13:15:12;94423.91;;;14.31;56.42
11914;BME280;6017;42.676;23.284;2022-09-21T13:17:41;94396.28;;;13.92;58.24
11914;BME280;6017;42.676;23.284;2022-09-21T13:20:16;94423.88;;;14.03;59.10
11914;BME280;6017;42.676;23.284;2022-09-21T13:22:44;94423.88;;;14.10;56.43
11914;BME280;6017;42.676;23.284;2022-09-21T13:25:21;94350.69;;;13.68;57.82
11914;BME280;6017;42.676;23.284;2022-09-21T13:28:18;94416.59;;;13.83;58.35
11914;BME280;6017;42.676;23.284;2022-09-21T13:30:47;94413.50;;;13.60;58.34
11914;BME280;6017;42.676;23.284;2022-09-21T13:33:32;94410.44;;;13.75;59.41
11914;BME280;6017;42.676;23.284;2022-09-21T13:36:10;94403.16;;;13.72;59.57
11914;BME280;6017;42.676;23.284;2022-09-21T13:39:13;94417.34;;;13.73;58.84
11914;BME280;6017;42.676;23.284;2022-09-21T13:41:41;94412.69;;;13.52;59.12
11914;BME280;6017;42.676;23.284;2022-09-21T13:44:19;94408.50;;;13.55;58.54
11914;BME280;6017;42.676;23.284;2022-09-21T13:46:54;94403.91;;;13.55;58.70
11914;BME280;6017;42.676;23.284;2022-09-21T13:49:31;94398.59;;;13.76;58.82
11914;BME280;6017;42.676;23.284;2022-09-21T13:52:02;94416.97;;;14.02;56.81
11914;BME280;6017;42.676;23.284;2022-09-21T13:54:34;94240.72;;;12.80;55.20
11914;BME280;6017;42.676;23.284;2022-09-21T13:57:06;94422.75;;;14.18;55.00
11914;BME280;6017;42.676;23.284;2022-09-21T13:59:41;94207.81;;;12.62;55.66
11914;BME280;6017;42.676;23.284;2022-09-21T14:02:24;94249.56;;;12.98;55.31
11914;BME280;6017;42.676;23.284;2022-09-21T14:05:01;94357.97;;;13.85;51.53
11914;BME280;6017;42.676;23.284;2022-09-21T14:07:32;94406.28;;;14.30;57.25
11914;BME280;6017;42.676;23.284;2022-09-21T14:10:03;94305.91;;;13.47;58.91
11914;BME280;6017;42.676;23.284;2022-09-21T14:12:36;94410.09;;;14.50;58.73
11914;BME280;6017;42.676;23.284;2022-09-21T14:15:22;94405.44;;;14.68;56.88
11914;BME280;6017;42.676;23.284;2022-09-21T14:18:21;94279.06;;;14.00;50.74
11914;BME280;6017;42.676;23.284;2022-09-21T14:21:11;94400.72;;;15.08;55.50
11914;BME280;6017;42.676;23.284;2022-09-21T14:24:08;94402.63;;;15.04;54.30
11914;BME280;6017;42.676;23.284;2022-09-21T14:27:01;94399.28;;;14.75;54.95
11914;BME280;6017;42.676;23.284;2022-09-21T14:29:38;94407.00;;;14.66;54.70
11914;BME280;6017;42.676;23.284;2022-09-21T14:32:13;94411.59;;;14.48;55.26
11914;BME280;6017;42.676;23.284;2022-09-21T14:34:44;94373.31;;;13.98;55.52
11914;BME280;6017;42.676;23.284;2022-09-21T14:37:20;94394.75;;;14.05;55.52
11914;BME280;6017;42.676;23.284;2022-09-21T14:39:54;94395.88;;;13.73;57.21
11914;BME280;6017;42.676;23.284;2022-09-21T14:42:24;94395.13;;;13.58;57.56
11914;BME280;6017;42.676;23.284;2022-09-21T14:44:56;94395.09;;;13.51;57.79
11914;BME280;6017;42.676;23.284;2022-09-21T14:47:38;94437.25;;;13.61;58.40
11914;BME280;6017;42.676;23.284;2022-09-21T14:50:24;94434.53;;;13.47;58.76
11914;BME280;6017;42.676;23.284;2022-09-21T14:56:03;94426.75;;;13.07;57.70
11914;BME280;6017;42.676;23.284;2022-09-21T14:58:46;94414.09;;;13.04;58.01
11914;BME280;6017;42.676;23.284;2022-09-21T15:01:25;94402.16;;;12.91;58.40
11914;BME280;6017;42.676;23.284;2022-09-21T15:04:22;94419.09;;;13.19;56.93
11914;BME280;6017;42.676;23.284;2022-09-21T15:07:08;94361.22;;;12.94;57.83
11914;BME280;6017;42.676;23.284;2022-09-21T15:10:23;94416.13;;;13.42;54.99
11914;BME280;6017;42.676;23.284;2022-09-21T15:13:19;94424.56;;;13.41;54.43
11914;BME280;6017;42.676;23.284;2022-09-21T15:15:59;94317.94;;;12.67;55.52
11914;BME280;6017;42.676;23.284;2022-09-21T15:18:28;94430.28;;;13.39;56.17
11914;BME280;6017;42.676;23.284;2022-09-21T15:20:56;94429.88;;;13.37;56.64
11914;BME280;6017;42.676;23.284;2022-09-21T15:23:27;94413.41;;;13.24;56.05
11914;BME280;6017;42.676;23.284;2022-09-21T15:25:58;94436.06;;;13.48;55.91
11914;BME280;6017;42.676;23.284;2022-09-21T15:28:33;94434.53;;;13.58;56.38
11914;BME280;6017;42.676;23.284;2022-09-21T15:31:01;94434.94;;;13.56;56.84